Time;durP1;ratioP1;P1;durP2;ratioP2;P2;SDS_P1;SDS_P2;PMS_P1;PMS_P2;Temp;Humidity;BMP_temperature;BMP_pressure;BME280_temperature;BME280_humidity;BME280_pressure;Samples;Min_cycle;Max_cycle;Signal;HPM_P1;HPM_P2
2023/01/27 00:01:59;;;;;;;24.53;20.83;;;-0.10;99.90;;;0.66;100.00;98122.16;5219614;28;20230;-60
2023/01/27 00:04:32;;;;;;;24.00;20.50;;;-0.10;99.90;;;0.64;100.00;98125.25;5210277;28;20319;-60
2023/01/27 00:07:07;;;;;;;24.67;21.67;;;-0.10;99.90;;;0.61;100.00;98127.47;5214597;28;20290;-59
2023/01/27 00:09:40;;;;;;;24.00;20.13;;;-0.20;99.90;;;0.63;100.00;98125.97;5222642;28;20260;-59
2023/01/27 00:15:13;;;;;;;26.33;20.37;;;-0.20;99.90;;;0.64;100.00;98115.19;5221751;28;20247;-59
2023/01/27 00:17:46;;;;;;;25.27;21.13;;;-0.20;99.90;;;0.63;100.00;98118.44;5212140;28;20197;-60
2023/01/27 00:24:34;;;;;;;26.97;21.13;;;-0.20;99.90;;;0.67;100.00;98123.03;5215253;28;20263;-59
2023/01/27 00:26:13;;;;;;;28.77;23.77;;;-0.20;99.90;;;0.54;100.00;98122.56;5219436;28;20202;-60
2023/01/27 00:28:47;;;;;;;28.80;22.13;;;-0.30;99.90;;;0.55;100.00;98122.72;5215344;28;20651;-59
2023/01/27 00:34:11;;;;;;;28.40;22.13;;;-0.30;99.90;;;0.52;100.00;98114.88;5214669;28;20221;-61
2023/01/27 00:36:44;;;;;;;29.50;22.33;;;-0.20;99.90;;;0.51;100.00;98113.06;5223174;28;20210;-59
2023/01/27 00:39:19;;;;;;;24.97;21.70;;;-0.20;99.90;;;0.48;100.00;98117.81;5217156;28;20209;-61
2023/01/27 00:41:52;;;;;;;28.93;21.53;;;-0.20;99.90;;;0.50;100.00;98123.00;5211485;28;20724;-59
2023/01/27 00:44:25;;;;;;;28.27;21.97;;;-0.30;99.90;;;0.48;100.00;98117.81;5214556;28;20214;-60
2023/01/27 00:46:58;;;;;;;24.63;20.67;;;-0.30;99.90;;;0.45;100.00;98117.50;5214267;28;20230;-61
2023/01/27 00:49:31;;;;;;;31.03;22.40;;;-0.30;99.90;;;0.43;100.00;98119.88;5216271;28;20230;-59
2023/01/27 00:52:04;;;;;;;27.33;21.20;;;-0.30;99.90;;;0.45;100.00;98123.41;5207311;28;20236;-61
2023/01/27 00:54:39;;;;;;;28.83;23.13;;;-0.30;99.90;;;0.52;100.00;98134.09;5215175;28;20276;-60
2023/01/27 00:57:12;;;;;;;29.23;23.00;;;-0.30;99.90;;;0.48;100.00;98126.97;5220230;28;20214;-59
2023/01/27 00:59:45;;;;;;;28.20;22.50;;;-0.20;99.90;;;0.52;100.00;98124.06;5218670;28;20232;-60
2023/01/27 01:02:18;;;;;;;28.80;22.37;;;-0.20;99.90;;;0.50;100.00;98125.50;5215682;28;20243;-59
2023/01/27 01:04:51;;;;;;;27.20;22.37;;;-0.20;99.90;;;0.54;100.00;98128.47;5222183;28;20763;-60
2023/01/27 01:07:24;;;;;;;28.33;22.63;;;-0.20;99.90;;;0.47;100.00;98125.22;5221065;28;20245;-60
2023/01/27 01:09:59;;;;;;;29.77;22.10;;;-0.20;99.90;;;0.50;100.00;98128.03;5221291;28;20245;-60
2023/01/27 01:12:32;;;;;;;29.40;22.87;;;-0.30;99.90;;;0.47;100.00;98130.25;5206592;28;20215;-61
2023/01/27 01:15:06;;;;;;;24.70;20.90;;;-0.30;99.90;;;0.47;100.00;98135.25;5214524;28;20258;-61
2023/01/27 01:17:40;;;;;;;31.97;23.67;;;-0.20;99.90;;;0.48;100.00;98134.53;5216034;28;20206;-61
2023/01/27 01:20:13;;;;;;;28.73;21.83;;;-0.20;99.90;;;0.44;100.00;98134.22;5219671;28;20262;-60
2023/01/27 01:22:46;;;;;;;29.30;22.70;;;-0.20;99.90;;;0.56;100.00;98137.06;5219210;28;20206;-59
2023/01/27 01:25:21;;;;;;;29.13;23.17;;;-0.20;99.90;;;0.51;100.00;98133.19;5218430;28;20237;-60
2023/01/27 01:27:54;;;;;;;27.87;21.63;;;-0.20;99.90;;;0.55;100.00;98129.38;5218624;28;21826;-61
2023/01/27 01:30:28;;;;;;;27.03;22.27;;;-0.20;99.90;;;0.58;100.00;98134.72;5210446;28;20195;-60
2023/01/27 01:33:01;;;;;;;27.50;21.87;;;-0.20;99.90;;;0.55;100.00;98132.78;5217007;28;20265;-61
2023/01/27 01:35:38;;;;;;;29.80;23.03;;;-0.20;99.90;;;0.57;100.00;98132.91;5213786;28;20229;-60
2023/01/27 01:38:11;;;;;;;26.90;21.40;;;-0.20;99.90;;;0.59;100.00;98134.84;5209497;28;20574;-60
2023/01/27 01:40:46;;;;;;;31.63;22.13;;;-0.30;99.90;;;0.53;100.00;98130.84;5221639;28;20254;-61
2023/01/27 01:43:21;;;;;;;29.93;22.33;;;-0.30;99.90;;;0.59;100.00;98133.97;5208913;28;20313;-61
2023/01/27 01:45:56;;;;;;;29.87;22.57;;;-0.20;99.90;;;0.56;100.00;98126.13;5211379;28;20206;-60
2023/01/27 01:48:36;;;;;;;30.13;23.30;;;-0.20;99.90;;;0.48;100.00;98126.97;5218597;28;20197;-60
2023/01/27 01:51:15;;;;;;;29.10;22.47;;;-0.20;99.90;;;0.50;100.00;98121.38;5216286;28;20222;-60
2023/01/27 01:53:53;;;;;;;30.67;22.30;;;-0.20;99.90;;;0.53;100.00;98126.69;5216504;28;20218;-59
2023/01/27 01:56:33;;;;;;;30.60;23.00;;;-0.20;99.90;;;0.62;100.00;98111.63;5214131;28;20202;-60
2023/01/27 01:59:11;;;;;;;31.17;22.90;;;-0.30;99.90;;;0.57;100.00;98116.22;5211822;28;20238;-59
2023/01/27 02:01:44;;;;;;;33.70;23.63;;;-0.30;99.90;;;0.52;100.00;98108.97;5215647;28;20201;-61
2023/01/27 02:04:22;;;;;;;32.13;24.07;;;-0.30;99.90;;;0.56;100.00;98116.06;5207555;28;20698;-61
2023/01/27 02:07:01;;;;;;;31.90;23.10;;;-0.30;99.90;;;0.55;100.00;98115.19;5214433;28;20654;-62
2023/01/27 02:09:35;;;;;;;30.77;23.47;;;-0.30;99.90;;;0.59;100.00;98111.34;5212127;28;20629;-62
2023/01/27 02:12:10;;;;;;;33.67;23.47;;;-0.30;99.90;;;0.54;100.00;98103.31;5213782;28;20257;-62
2023/01/27 02:14:43;;;;;;;33.30;23.73;;;-0.30;99.90;;;0.50;100.00;98100.38;5220256;28;20270;-62
2023/01/27 02:17:17;;;;;;;34.77;23.17;;;-0.30;99.90;;;0.44;100.00;98106.56;5220240;28;20656;-62
2023/01/27 02:20:01;;;;;;;32.67;23.07;;;-0.30;99.90;;;0.47;100.00;98095.03;5208552;28;20586;-61
2023/01/27 02:22:43;;;;;;;29.23;22.10;;;-0.30;99.90;;;0.53;100.00;98101.56;5209847;28;20254;-61
2023/01/27 02:25:25;;;;;;;30.70;22.27;;;-0.30;99.90;;;0.48;100.00;98104.34;5216826;28;20238;-62
2023/01/27 02:28:00;;;;;;;32.63;21.60;;;-0.30;99.90;;;0.47;100.00;98100.06;5212339;28;20199;-62
2023/01/27 02:30:34;;;;;;;30.10;22.63;;;-0.30;99.90;;;0.50;100.00;98100.38;5216908;28;20201;-62
2023/01/27 02:33:11;;;;;;;34.07;23.20;;;-0.30;99.90;;;0.56;100.00;98100.97;5220246;28;20245;-62
2023/01/27 02:36:02;;;;;;;32.80;23.10;;;-0.30;99.90;;;0.50;100.00;98102.88;5215108;28;20281;-62
2023/01/27 02:38:41;;;;;;;32.83;21.83;;;-0.30;99.90;;;0.44;100.00;98100.66;5219163;28;20226;-62
2023/01/27 02:41:20;;;;;;;29.73;22.67;;;-0.30;99.90;;;0.44;100.00;98094.00;5211706;28;20284;-62
2023/01/27 02:43:55;;;;;;;32.23;21.63;;;-0.30;99.90;;;0.55;100.00;98096.69;5209993;28;20763;-62
2023/01/27 02:46:29;;;;;;;34.03;22.73;;;-0.30;99.90;;;0.43;100.00;98099.78;5211856;28;20253;-62
2023/01/27 02:49:02;;;;;;;29.87;21.47;;;-0.30;99.90;;;0.53;100.00;98099.03;5214895;28;20206;-61
2023/01/27 02:51:35;;;;;;;29.77;21.20;;;-0.30;99.90;;;0.45;100.00;98087.34;5215503;28;20288;-61
2023/01/27 02:54:09;;;;;;;31.00;21.30;;;-0.30;99.90;;;0.40;100.00;98094.44;5214608;28;20277;-62
2023/01/27 02:56:42;;;;;;;31.53;21.87;;;-0.30;99.90;;;0.49;100.00;98098.56;5212026;28;20201;-61
2023/01/27 02:59:16;;;;;;;33.87;22.90;;;-0.30;99.90;;;0.45;100.00;98082.31;5213175;28;20209;-61
2023/01/27 03:01:49;;;;;;;28.30;21.47;;;-0.30;99.90;;;0.53;100.00;98095.66;5213179;28;20189;-62
2023/01/27 03:04:22;;;;;;;34.67;22.83;;;-0.30;99.90;;;0.46;100.00;98089.13;5206070;28;20230;-62
2023/01/27 03:06:55;;;;;;;32.33;22.13;;;-0.30;99.90;;;0.44;100.00;98104.03;5211621;28;20199;-61
2023/01/27 03:09:28;;;;;;;30.73;21.50;;;-0.30;99.90;;;0.42;100.00;98108.03;5209821;28;20239;-62
2023/01/27 03:12:20;;;;;;;30.27;22.57;;;-0.30;99.90;;;0.40;100.00;98104.50;5222128;28;20251;-62
2023/01/27 03:20:37;;;;;;;33.53;22.30;;;-0.30;99.90;;;0.43;100.00;98093.84;5219509;28;20198;-62
2023/01/27 03:23:11;;;;;;;30.33;22.23;;;-0.30;99.90;;;0.43;100.00;98102.28;5221864;28;20225;-62
2023/01/27 03:25:47;;;;;;;26.67;20.33;;;-0.30;99.90;;;0.38;100.00;98105.97;5219895;28;20224;-62
2023/01/27 03:28:20;;;;;;;28.60;21.23;;;-0.30;99.90;;;0.36;100.00;98107.41;5220192;28;20319;-62
2023/01/27 03:31:00;;;;;;;26.87;20.77;;;-0.30;99.90;;;0.35;100.00;98100.63;5214486;28;20204;-61
2023/01/27 03:33:35;;;;;;;28.50;21.10;;;-0.30;99.90;;;0.39;100.00;98105.22;5209237;28;20230;-61
2023/01/27 03:47:31;;;;;;;31.00;21.53;;;-0.30;99.90;;;0.41;100.00;98106.25;5221307;28;20292;-62
2023/01/27 03:50:10;;;;;;;27.57;20.40;;;-0.30;99.90;;;0.48;100.00;98104.34;5215010;28;20663;-62
2023/01/27 03:53:01;;;;;;;29.37;21.27;;;-0.30;99.90;;;0.49;100.00;98104.53;5217585;28;20218;-62
2023/01/27 03:55:37;;;;;;;31.60;22.10;;;-0.30;99.90;;;0.50;100.00;98107.91;5222175;28;20681;-62
2023/01/27 03:58:20;;;;;;;28.33;20.90;;;-0.30;99.90;;;0.48;100.00;98109.38;5210143;28;20641;-61
2023/01/27 04:00:55;;;;;;;29.47;21.97;;;-0.30;99.90;;;0.55;100.00;98099.22;5215709;28;20605;-62
2023/01/27 04:09:23;;;;;;;33.47;23.80;;;-0.30;99.90;;;0.45;100.00;98088.22;5217224;28;20575;-62
2023/01/27 04:11:59;;;;;;;35.30;23.57;;;-0.30;99.90;;;0.51;100.00;98102.13;5217556;28;20308;-61
2023/01/27 04:14:36;;;;;;;34.03;23.53;;;-0.20;99.90;;;0.48;100.00;98096.81;5217590;28;20219;-62
2023/01/27 04:17:12;;;;;;;37.80;24.93;;;-0.30;99.90;;;0.44;100.00;98088.06;5213863;28;20621;-61
2023/01/27 04:19:47;;;;;;;34.23;23.17;;;-0.20;99.90;;;0.47;100.00;98095.03;5211974;28;20675;-61
2023/01/27 04:22:20;;;;;;;32.73;23.60;;;-0.30;99.90;;;0.48;100.00;98092.66;5212992;28;20274;-62
2023/01/27 04:24:53;;;;;;;38.13;24.40;;;-0.30;99.90;;;0.49;100.00;98109.53;5220847;28;20255;-62
2023/01/27 04:27:26;;;;;;;33.57;23.77;;;-0.30;99.90;;;0.41;100.00;98098.72;5219810;28;20201;-62
2023/01/27 04:29:59;;;;;;;32.77;23.07;;;-0.30;99.90;;;0.42;100.00;98107.16;5208916;28;20565;-61
2023/01/27 04:32:32;;;;;;;33.53;22.47;;;-0.30;99.90;;;0.44;100.00;98103.16;5211154;28;20225;-60
2023/01/27 04:35:08;;;;;;;30.30;22.47;;;-0.20;99.90;;;0.48;100.00;98119.44;5219312;28;20231;-61
2023/01/27 04:37:41;;;;;;;30.63;22.20;;;-0.20;99.90;;;0.45;100.00;98112.47;5212513;28;20327;-61
2023/01/27 04:40:14;;;;;;;28.07;19.60;;;-0.20;99.90;;;0.43;100.00;98112.34;5220888;28;20578;-62
2023/01/27 04:42:48;;;;;;;26.77;18.37;;;-0.30;99.90;;;0.42;100.00;98110.53;5215420;28;20200;-62
2023/01/27 04:45:21;;;;;;;27.27;19.17;;;-0.30;99.90;;;0.45;100.00;98120.00;5213803;28;20216;-62
2023/01/27 04:47:54;;;;;;;26.07;18.63;;;-0.20;99.90;;;0.43;100.00;98129.94;5216507;28;20299;-60
2023/01/27 04:50:28;;;;;;;28.20;20.30;;;-0.20;99.90;;;0.44;100.00;98125.78;5210327;28;20946;-62
2023/01/27 04:53:01;;;;;;;30.73;20.83;;;-0.20;99.90;;;0.47;100.00;98130.25;5213298;28;20587;-62
2023/01/27 04:55:34;;;;;;;30.33;20.30;;;-0.20;99.90;;;0.45;100.00;98123.41;5215099;28;20230;-62
2023/01/27 04:58:07;;;;;;;23.27;18.10;;;-0.20;99.90;;;0.43;100.00;98127.41;5219282;28;20272;-62
2023/01/27 05:00:40;;;;;;;18.77;15.03;;;-0.20;99.90;;;0.43;100.00;98134.97;5212064;28;20229;-61
2023/01/27 05:03:14;;;;;;;18.03;14.43;;;-0.30;99.90;;;0.43;100.00;98129.94;5219586;28;20220;-62
2023/01/27 05:05:48;;;;;;;13.97;12.47;;;-0.20;99.90;;;0.38;100.00;98131.09;5217083;28;20248;-61
2023/01/27 05:08:21;;;;;;;15.10;11.67;;;-0.30;99.90;;;0.19;100.00;98145.06;5214195;28;20294;-61
2023/01/27 05:10:54;;;;;;;13.07;11.23;;;-0.40;99.90;;;0.21;100.00;98136.06;5214969;28;20234;-62
2023/01/27 05:13:27;;;;;;;13.67;11.00;;;-0.40;99.90;;;0.27;100.00;98134.16;5215649;28;20268;-62
2023/01/27 05:16:10;;;;;;;13.33;11.20;;;-0.30;99.90;;;0.22;99.71;98132.78;5213994;28;20678;-62
2023/01/27 05:18:45;;;;;;;12.70;11.23;;;-0.40;99.90;;;0.20;100.00;98134.25;5213004;28;20204;-61
2023/01/27 05:21:23;;;;;;;12.73;10.63;;;-0.40;99.90;;;0.09;99.11;98135.72;5210265;28;20197;-62
2023/01/27 05:23:56;;;;;;;13.37;10.63;;;-0.50;99.90;;;0.07;98.87;98141.31;5207480;28;20654;-61
2023/01/27 05:26:29;;;;;;;12.07;10.77;;;-0.50;99.90;;;0.09;98.80;98145.75;5209225;28;20199;-61
2023/01/27 05:29:02;;;;;;;12.73;10.57;;;-0.50;99.90;;;0.04;98.52;98143.50;5207005;28;20302;-61
2023/01/27 05:31:35;;;;;;;12.30;11.00;;;-0.50;99.90;;;0.22;98.29;98142.84;5209029;28;20233;-61
2023/01/27 05:34:09;;;;;;;12.53;10.43;;;-0.40;99.90;;;0.23;98.08;98144.66;5212708;28;20231;-61
2023/01/27 05:36:44;;;;;;;14.63;12.17;;;-0.40;99.90;;;0.17;97.90;98149.94;5211591;28;20229;-61
2023/01/27 05:39:17;;;;;;;14.27;12.40;;;-0.50;99.90;;;0.12;98.40;98140.16;5211147;28;20204;-61
2023/01/27 05:41:50;;;;;;;13.90;11.90;;;-0.50;99.90;;;-0.01;97.69;98148.94;5213467;28;20232;-62
2023/01/27 05:44:23;;;;;;;13.20;11.73;;;-0.50;99.90;;;-0.07;97.97;98163.38;5214239;28;20299;-62
2023/01/27 05:46:56;;;;;;;14.33;11.80;;;-0.50;99.90;;;-0.13;98.01;98145.19;5211329;28;20224;-62
2023/01/27 05:49:29;;;;;;;15.60;11.87;;;-0.60;99.90;;;-0.04;97.96;98146.13;5210190;28;20219;-62
2023/01/27 05:52:04;;;;;;;15.67;12.07;;;-0.60;99.90;;;-0.11;97.81;98146.25;5214981;28;20643;-63
2023/01/27 05:54:37;;;;;;;14.57;12.03;;;-0.60;99.90;;;0.04;97.54;98148.53;5212463;28;20221;-60
2023/01/27 05:57:10;;;;;;;14.20;12.70;;;-0.50;99.90;;;0.08;97.93;98148.09;5212135;28;20210;-62
2023/01/27 05:59:43;;;;;;;14.23;12.50;;;-0.50;99.90;;;0.09;97.29;98144.88;5213569;28;20287;-62
2023/01/27 06:02:16;;;;;;;16.50;12.87;;;-0.50;99.90;;;0.18;98.22;98145.81;5218699;28;20211;-61
2023/01/27 06:04:49;;;;;;;16.23;13.23;;;-0.40;99.90;;;0.22;98.42;98148.75;5214374;28;20250;-62
2023/01/27 06:07:24;;;;;;;15.43;12.70;;;-0.40;99.90;;;0.14;97.41;98147.13;5209023;28;20215;-62
2023/01/27 06:09:57;;;;;;;17.30;13.90;;;-0.50;99.90;;;0.18;98.38;98148.31;5218049;28;20707;-62
2023/01/27 06:12:30;;;;;;;17.97;13.80;;;-0.40;99.90;;;0.20;97.26;98151.84;5216686;28;20205;-62
2023/01/27 06:15:03;;;;;;;17.47;13.47;;;-0.50;99.90;;;0.17;96.33;98160.00;5213423;28;20260;-61
2023/01/27 06:17:36;;;;;;;15.60;13.20;;;-0.50;99.90;;;0.16;97.28;98163.22;5208289;28;20619;-61
2023/01/27 06:20:12;;;;;;;15.83;12.53;;;-0.50;99.90;;;0.13;96.86;98157.88;5208722;28;20210;-61
2023/01/27 06:22:49;;;;;;;16.20;13.50;;;-0.50;99.90;;;0.18;98.08;98165.91;5218714;28;20634;-62
2023/01/27 06:25:22;;;;;;;15.60;11.97;;;-0.40;99.90;;;0.20;98.16;98169.44;5216770;28;20228;-62
2023/01/27 06:27:56;;;;;;;15.60;11.93;;;-0.40;99.90;;;0.20;97.71;98161.91;5211764;28;20276;-62
2023/01/27 06:30:29;;;;;;;17.13;13.00;;;-0.50;99.90;;;0.20;98.64;98166.94;5205766;28;20252;-61
2023/01/27 06:33:03;;;;;;;15.40;11.87;;;-0.40;99.90;;;0.21;97.33;98181.28;5217696;28;20233;-62
2023/01/27 06:35:38;;;;;;;15.57;13.03;;;-0.40;99.90;;;0.23;97.74;98184.84;5215353;28;20206;-62
2023/01/27 06:38:14;;;;;;;15.17;12.27;;;-0.40;99.90;;;0.14;95.65;98184.81;5212788;28;20806;-61
2023/01/27 06:40:47;;;;;;;15.33;13.20;;;-0.50;99.90;;;0.14;96.31;98188.94;5217260;28;20642;-60
2023/01/27 06:43:20;;;;;;;15.67;12.70;;;-0.50;99.90;;;0.06;95.94;98192.28;5214780;28;20226;-60
2023/01/27 06:45:56;;;;;;;16.53;12.53;;;-0.60;99.90;;;-0.10;96.11;98205.78;5209068;28;20202;-60
2023/01/27 06:48:29;;;;;;;17.10;13.10;;;-0.60;99.90;;;0.01;95.83;98201.00;5212999;28;20370;-61
2023/01/27 06:51:02;;;;;;;20.03;12.60;;;-0.60;99.90;;;-0.02;96.22;98194.91;5207971;28;20304;-61
2023/01/27 06:53:37;;;;;;;17.33;13.30;;;-0.60;99.90;;;-0.07;96.16;98201.06;5209132;28;21038;-61
2023/01/27 06:56:10;;;;;;;16.10;13.53;;;-0.60;99.90;;;0.00;95.88;98202.63;5210544;28;20221;-60
2023/01/27 06:58:43;;;;;;;19.17;14.10;;;-0.60;99.90;;;0.05;95.84;98208.09;5208798;28;20198;-61
2023/01/27 07:01:17;;;;;;;21.50;15.77;;;-0.60;99.90;;;0.02;96.62;98207.78;5211017;28;20210;-60
2023/01/27 07:03:50;;;;;;;22.57;16.27;;;-0.50;99.90;;;0.07;95.39;98222.59;5204243;28;20558;-61
2023/01/27 07:06:23;;;;;;;20.27;15.63;;;-0.60;99.90;;;0.06;95.96;98219.91;5215588;28;20225;-60
2023/01/27 07:08:57;;;;;;;22.83;16.73;;;-0.60;99.90;;;0.06;97.08;98220.84;5215230;28;20202;-61
2023/01/27 07:11:30;;;;;;;24.50;17.20;;;-0.50;99.90;;;0.09;97.51;98221.13;5210615;28;20208;-61
2023/01/27 07:14:03;;;;;;;25.73;17.87;;;-0.50;99.90;;;0.11;97.52;98219.66;5212973;28;20225;-61
2023/01/27 07:16:36;;;;;;;27.13;18.27;;;-0.50;99.90;;;0.15;97.22;98225.91;5207003;28;20292;-60
2023/01/27 07:19:11;;;;;;;24.10;16.97;;;-0.50;99.90;;;0.10;97.25;98237.09;5208953;28;20221;-61
2023/01/27 07:21:44;;;;;;;24.27;17.60;;;-0.50;99.90;;;-0.24;97.42;98226.94;5212993;28;20600;-61
2023/01/27 07:24:19;;;;;;;25.07;17.10;;;-0.60;99.90;;;-0.11;95.60;98230.75;5213212;28;20255;-60
2023/01/27 07:26:52;;;;;;;26.27;17.40;;;-0.60;99.90;;;-0.26;95.80;98230.94;5208860;28;20245;-59
2023/01/27 07:29:25;;;;;;;24.57;17.33;;;-0.70;99.90;;;-0.20;97.42;98235.72;5213142;28;20261;-61
2023/01/27 07:31:58;;;;;;;25.07;16.57;;;-0.70;99.90;;;-0.11;96.57;98240.81;5210510;28;20214;-60
2023/01/27 07:34:32;;;;;;;26.27;16.90;;;-0.70;99.90;;;-0.16;96.56;98242.84;5210689;28;20286;-60
2023/01/27 07:37:05;;;;;;;26.10;16.20;;;-0.70;99.90;;;-0.15;96.19;98247.13;5208620;28;20205;-60
2023/01/27 07:39:39;;;;;;;25.93;17.27;;;-0.70;99.90;;;-0.41;96.14;98249.41;5215174;28;20642;-60
2023/01/27 07:42:12;;;;;;;27.03;17.33;;;-0.80;99.90;;;-0.30;95.21;98255.56;5216878;28;20228;-60
2023/01/27 07:44:45;;;;;;;27.27;16.67;;;-0.80;99.90;;;-0.47;95.50;98259.69;5211454;28;20217;-61
2023/01/27 07:47:18;;;;;;;25.27;18.17;;;-0.80;99.90;;;-0.47;95.91;98259.69;5207076;28;20208;-61
2023/01/27 07:49:51;;;;;;;25.03;16.87;;;-0.90;99.90;;;-0.26;95.72;98255.16;5217960;28;20227;-60
2023/01/27 07:52:24;;;;;;;25.00;16.53;;;-0.80;99.90;;;-0.28;95.46;98241.56;5217304;28;20312;-61
2023/01/27 07:54:59;;;;;;;25.47;17.90;;;-0.80;99.90;;;-0.22;95.72;98257.28;5213431;28;20278;-61
2023/01/27 07:57:32;;;;;;;27.57;18.17;;;-0.80;99.90;;;-0.15;95.64;98253.75;5212923;28;20262;-61
2023/01/27 08:00:07;;;;;;;25.87;17.17;;;-0.70;99.90;;;-0.29;96.26;98257.34;5208275;28;20280;-62
2023/01/27 08:02:39;;;;;;;27.07;18.30;;;-0.80;99.90;;;-0.20;96.26;98258.31;5204901;28;20221;-59
2023/01/27 08:05:13;;;;;;;29.60;18.90;;;-0.70;99.90;;;-0.17;96.24;98261.16;5207636;28;20229;-56
2023/01/27 08:07:46;;;;;;;26.10;17.63;;;-0.70;99.90;;;-0.24;94.93;98269.66;5216291;28;20201;-58
2023/01/27 08:10:20;;;;;;;27.60;18.13;;;-0.70;99.90;;;-0.26;95.88;98265.19;5216261;28;20216;-59
2023/01/27 08:12:53;;;;;;;28.67;17.43;;;-0.70;99.90;;;-0.24;96.80;98279.69;5209991;28;20204;-57
2023/01/27 08:15:26;;;;;;;31.10;18.57;;;-0.70;99.90;;;-0.07;97.12;98268.91;5215401;28;20639;-60
2023/01/27 08:18:01;;;;;;;27.93;17.63;;;-0.60;99.90;;;0.01;96.79;98263.81;5210498;28;20225;-61
2023/01/27 08:20:34;;;;;;;31.43;18.90;;;-0.60;99.90;;;0.04;96.67;98267.50;5213193;28;20703;-58
2023/01/27 08:23:07;;;;;;;27.93;18.63;;;-0.50;99.90;;;0.09;96.61;98257.94;5221851;28;20641;-58
2023/01/27 08:25:41;;;;;;;27.77;17.57;;;-0.40;99.90;;;0.14;96.26;98254.25;5213068;28;20254;-57
2023/01/27 08:28:14;;;;;;;24.57;16.60;;;-0.50;99.90;;;0.18;95.86;98266.44;5218989;28;20734;-58
2023/01/27 08:30:50;;;;;;;22.00;15.90;;;-0.40;99.90;;;0.17;94.82;98280.63;5222740;28;20576;-60
2023/01/27 08:33:24;;;;;;;22.30;15.50;;;-0.40;99.90;;;0.06;93.75;98276.09;5219433;28;20646;-60
2023/01/27 08:36:02;;;;;;;22.63;15.90;;;-0.50;99.90;;;0.23;93.84;98280.38;5214636;28;20216;-58
2023/01/27 08:38:36;;;;;;;22.83;15.77;;;-0.40;99.90;;;0.16;93.76;98278.81;5209042;28;20206;-57
2023/01/27 08:41:14;;;;;;;22.87;15.67;;;-0.40;99.90;;;0.11;92.75;98272.41;5217877;28;20293;-57
2023/01/27 08:43:47;;;;;;;23.80;15.97;;;-0.40;99.90;;;0.25;93.05;98285.53;5214994;28;20249;-57
2023/01/27 08:46:21;;;;;;;21.87;15.17;;;-0.30;99.90;;;0.32;94.24;98273.75;5207368;28;20292;-59
2023/01/27 08:48:54;;;;;;;21.50;14.33;;;-0.30;99.90;;;0.33;94.59;98268.00;5213871;28;20198;-57
2023/01/27 08:51:27;;;;;;;20.53;15.00;;;-0.20;99.90;;;0.42;94.91;98268.94;5210336;28;20310;-61
2023/01/27 08:54:00;;;;;;;24.93;15.17;;;-0.20;99.90;;;0.47;95.05;98255.94;5212452;28;20225;-60
2023/01/27 08:56:35;;;;;;;23.50;16.47;;;-0.10;99.90;;;0.50;94.66;98269.72;5208355;28;20234;-58
2023/01/27 08:59:08;;;;;;;23.07;14.87;;;-0.10;99.90;;;0.45;93.66;98273.38;5208748;28;20206;-58
2023/01/27 09:01:41;;;;;;;18.93;15.00;;;-0.20;99.90;;;0.50;93.00;98277.25;5208945;28;20231;-60
2023/01/27 09:04:14;;;;;;;20.57;15.13;;;-0.10;99.90;;;0.39;92.15;98276.16;5207883;28;21278;-60
2023/01/27 09:06:48;;;;;;;22.87;16.27;;;-0.20;99.90;;;0.39;92.36;98273.66;5210594;28;20230;-58
2023/01/27 09:09:21;;;;;;;23.57;15.63;;;-0.20;99.90;;;0.48;93.49;98286.25;5212391;28;20301;-58
2023/01/27 09:11:56;;;;;;;21.63;15.30;;;-0.10;99.90;;;0.55;93.76;98275.22;5208892;28;20208;-57
2023/01/27 09:14:29;;;;;;;19.90;14.50;;;-0.10;99.90;;;0.64;93.13;98282.06;5212647;28;20568;-59
2023/01/27 09:17:02;;;;;;;21.70;15.70;;;0.00;99.90;;;0.57;93.63;98287.22;5212945;28;20202;-57
2023/01/27 09:19:35;;;;;;;22.73;16.00;;;0.00;99.90;;;0.61;94.58;98289.31;5211157;28;20619;-59
2023/01/27 09:22:08;;;;;;;20.20;14.90;;;0.00;99.90;;;0.65;94.62;98281.31;5217179;28;20204;-58
2023/01/27 09:24:41;;;;;;;19.87;15.10;;;0.00;99.90;;;0.65;94.75;98282.97;5219758;28;20680;-59
2023/01/27 09:27:17;;;;;;;18.20;13.90;;;0.10;99.90;;;0.68;95.07;98280.75;5219595;28;20574;-61
2023/01/27 09:29:56;;;;;;;20.30;14.40;;;0.10;99.90;;;0.73;94.50;98286.25;5211642;28;20199;-59
2023/01/27 09:32:29;;;;;;;18.00;12.60;;;0.10;99.90;;;0.72;94.55;98285.38;5218533;28;20200;-59
2023/01/27 09:35:03;;;;;;;16.13;12.40;;;0.10;99.90;;;0.75;93.77;98282.28;5205658;28;20246;-59
2023/01/27 09:37:42;;;;;;;14.93;11.43;;;0.10;99.90;;;0.59;91.94;98287.38;5212231;28;20208;-60
2023/01/27 09:40:30;;;;;;;17.40;12.60;;;0.00;99.90;;;0.62;92.33;98291.06;5210630;28;20211;-60
2023/01/27 09:43:28;;;;;;;17.63;11.57;;;0.00;99.90;;;0.66;92.40;98284.75;5210308;28;20199;-59
2023/01/27 09:46:24;;;;;;;14.73;11.53;;;0.10;99.90;;;0.80;93.32;98283.63;5210986;28;20200;-60
2023/01/27 09:49:19;;;;;;;18.00;11.20;;;0.20;99.90;;;0.83;93.08;98278.88;5213775;28;20197;-61
2023/01/27 09:52:14;;;;;;;15.00;10.43;;;0.20;99.90;;;0.75;89.84;98282.28;5207862;28;20235;-59
2023/01/27 09:54:59;;;;;;;14.63;10.80;;;0.20;99.90;;;0.73;89.89;98278.72;5208458;28;20231;-61
2023/01/27 09:57:42;;;;;;;13.00;9.90;;;0.20;99.90;;;0.74;89.10;98278.84;5217006;28;20289;-61
2023/01/27 10:00:40;;;;;;;13.40;10.83;;;0.10;99.90;;;0.84;90.19;98279.06;5208367;28;20646;-60
2023/01/27 10:04:02;;;;;;;13.67;10.20;;;0.20;99.90;;;0.92;90.28;98278.91;5207543;28;20228;-61
2023/01/27 10:06:52;;;;;;;12.60;9.70;;;0.30;99.90;;;0.95;88.70;98289.31;5208970;28;20198;-61
2023/01/27 10:10:13;;;;;;;11.63;9.80;;;0.40;99.90;;;1.05;90.01;98276.91;5207013;28;20224;-61
2023/01/27 10:13:11;;;;;;;14.07;10.53;;;0.40;99.90;;;1.09;89.80;98277.38;5212638;28;20636;-61
2023/01/27 10:16:05;;;;;;;13.67;10.00;;;0.50;99.90;;;1.14;90.07;98285.38;5217510;28;20244;-61
2023/01/27 10:19:06;;;;;;;15.57;10.03;;;0.50;99.90;;;1.16;89.75;98300.66;5214597;28;20229;-61
2023/01/27 10:21:52;;;;;;;14.83;10.23;;;0.50;99.90;;;1.29;88.57;98297.00;5210508;28;20207;-60
2023/01/27 10:24:39;;;;;;;13.67;10.63;;;0.60;99.90;;;1.09;86.52;98301.66;5210762;28;20228;-60
2023/01/27 10:27:19;;;;;;;14.50;10.87;;;0.50;99.90;;;1.09;87.62;98305.06;5210154;28;20207;-59
2023/01/27 10:29:58;;;;;;;14.17;10.90;;;0.50;99.90;;;1.07;87.65;98308.16;5214965;28;20197;-59
2023/01/27 10:32:43;;;;;;;15.53;11.43;;;0.50;99.90;;;1.18;87.98;98304.22;5218490;28;20289;-60
2023/01/27 10:35:20;;;;;;;17.60;11.23;;;0.50;99.90;;;1.07;87.03;98310.69;5214555;28;20256;-60
2023/01/27 10:38:09;;;;;;;14.23;11.17;;;0.50;99.90;;;1.19;87.58;98306.88;5208286;28;20308;-56
2023/01/27 10:40:52;;;;;;;14.97;11.03;;;0.50;99.90;;;1.28;87.35;98312.81;5211765;28;20200;-58
2023/01/27 10:43:37;;;;;;;12.40;10.20;;;0.60;99.90;;;1.12;86.05;98299.47;5212914;28;20780;-59
2023/01/27 10:46:22;;;;;;;14.47;11.17;;;0.60;99.90;;;1.28;86.99;98314.44;5213293;28;20207;-60
2023/01/27 10:49:04;;;;;;;13.77;9.90;;;0.60;99.90;;;1.20;86.58;98310.28;5211546;28;20742;-61
2023/01/27 10:51:42;;;;;;;13.20;11.00;;;0.60;99.90;;;1.40;85.29;98307.22;5211889;28;20205;-60
2023/01/27 10:54:24;;;;;;;13.97;10.20;;;0.70;99.90;;;1.25;85.24;98307.47;5206397;28;20242;-61
2023/01/27 10:57:00;;;;;;;11.70;9.77;;;0.70;99.90;;;1.28;85.15;98297.72;5205676;28;20211;-58
2023/01/27 10:59:42;;;;;;;10.93;9.80;;;0.70;99.90;;;1.19;83.50;98300.94;5209468;28;20208;-60
2023/01/27 11:02:30;;;;;;;10.63;9.50;;;0.70;99.90;;;0.94;84.26;98307.66;5210070;28;20254;-59
2023/01/27 11:05:09;;;;;;;13.07;9.27;;;0.50;99.90;;;1.08;84.90;98305.78;5209026;28;20223;-58
2023/01/27 11:07:49;;;;;;;12.00;9.67;;;0.50;99.90;;;1.21;84.75;98296.97;5209607;28;20204;-58
2023/01/27 11:10:29;;;;;;;13.93;10.17;;;0.60;99.90;;;1.31;84.44;98292.97;5213854;28;20210;-58
2023/01/27 11:13:05;;;;;;;14.33;10.73;;;0.70;99.90;;;1.30;85.12;98280.25;5213423;28;20572;-57
2023/01/27 11:15:38;;;;;;;13.07;11.10;;;0.70;99.90;;;1.59;84.09;98280.59;5207296;28;20227;-60
2023/01/27 11:18:17;;;;;;;14.10;11.10;;;0.80;99.90;;;1.47;83.21;98284.44;5210923;28;20287;-58
2023/01/27 11:20:58;;;;;;;13.83;10.57;;;0.80;99.90;;;1.61;81.66;98288.31;5213312;28;20208;-58